Time;durP1;ratioP1;P1;durP2;ratioP2;P2;SDS_P1;SDS_P2;PMS_P1;PMS_P2;Temp;Humidity;BMP_temperature;BMP_pressure;BME280_temperature;BME280_humidity;BME280_pressure;Samples;Min_cycle;Max_cycle;Signal;HPM_P1;HPM_P2
2021/12/28 00:02:19;;;;;;;10.20;6.13;;;-5.90;90.30;;;;;;4987801;28;20033;-87
2021/12/28 00:04:45;;;;;;;8.35;5.07;;;-6.00;90.40;;;;;;4999150;28;20019;-85
2021/12/28 00:07:10;;;;;;;8.48;5.38;;;-5.90;90.10;;;;;;4995926;28;20069;-86
2021/12/28 00:09:36;;;;;;;7.47;5.07;;;-5.90;90.30;;;;;;4994914;28;20388;-84
2021/12/28 00:12:02;;;;;;;12.43;6.85;;;-5.90;90.30;;;;;;4995449;28;20121;-86
2021/12/28 00:14:35;;;;;;;7.55;5.15;;;-5.90;90.00;;;;;;4991045;28;20384;-84
2021/12/28 00:19:45;;;;;;;10.05;6.20;;;-5.90;90.00;;;;;;4995913;28;20123;-84
2021/12/28 00:22:11;;;;;;;6.00;5.03;;;-5.90;90.00;;;;;;4992790;28;20026;-85
2021/12/28 00:24:37;;;;;;;7.70;5.43;;;-5.90;89.90;;;;;;4987961;28;20080;-85
2021/12/28 00:27:04;;;;;;;9.90;5.15;;;-5.90;89.20;;;;;;4991939;28;20034;-86
2021/12/28 00:29:30;;;;;;;7.28;4.32;;;-5.90;89.20;;;;;;4987238;28;20043;-84
2021/12/28 00:31:56;;;;;;;9.38;4.85;;;-5.90;88.40;;;;;;4993062;28;20169;-86
2021/12/28 00:34:22;;;;;;;7.47;5.00;;;-5.90;88.00;;;;;;4998449;28;20503;-83
2021/12/28 00:36:48;;;;;;;8.23;4.30;;;-5.90;88.50;;;;;;5010408;28;20045;-82
2021/12/28 00:39:14;;;;;;;9.63;5.63;;;-5.90;88.90;;;;;;5003270;28;20076;-84
2021/12/28 00:41:40;;;;;;;9.00;4.55;;;-5.90;88.90;;;;;;4996311;28;20033;-83
2021/12/28 00:44:06;;;;;;;8.75;5.13;;;-5.90;87.40;;;;;;4995745;28;20451;-85
2021/12/28 00:46:32;;;;;;;7.20;4.78;;;-5.90;87.10;;;;;;4996585;28;20030;-83
2021/12/28 00:48:58;;;;;;;10.65;5.07;;;-5.90;87.20;;;;;;4999303;28;20026;-84
2021/12/28 00:51:24;;;;;;;8.27;4.03;;;-5.90;87.60;;;;;;4995056;28;20027;-83
2021/12/28 00:53:50;;;;;;;12.65;5.20;;;-5.90;87.40;;;;;;4994890;28;20550;-84
2021/12/28 00:56:16;;;;;;;10.73;4.78;;;-5.90;87.60;;;;;;4995059;28;20038;-82
2021/12/28 00:58:41;;;;;;;7.30;4.13;;;-5.90;87.00;;;;;;4986439;28;20031;-83
2021/12/28 01:01:07;;;;;;;5.75;3.42;;;-6.00;87.70;;;;;;5010115;28;20081;-83
2021/12/28 01:03:36;;;;;;;7.85;5.00;;;-5.90;88.10;;;;;;4993144;28;20065;-83
2021/12/28 01:06:03;;;;;;;8.98;5.53;;;-5.90;88.40;;;;;;4997965;28;20026;-85
2021/12/28 01:08:29;;;;;;;10.45;5.72;;;-5.90;88.90;;;;;;4995387;28;20022;-84
2021/12/28 01:10:55;;;;;;;9.82;4.50;;;-5.90;89.10;;;;;;4997270;28;20041;-83
2021/12/28 01:13:22;;;;;;;10.25;5.22;;;-5.90;88.90;;;;;;5000266;28;20038;-84
2021/12/28 01:15:50;;;;;;;5.93;4.65;;;-5.90;89.00;;;;;;4996977;28;20043;-82
2021/12/28 01:18:16;;;;;;;8.70;4.68;;;-5.90;89.20;;;;;;4997132;28;20029;-84
2021/12/28 01:20:43;;;;;;;10.57;5.15;;;-5.80;89.10;;;;;;5010982;28;20030;-83
2021/12/28 01:23:09;;;;;;;8.50;4.57;;;-5.80;89.10;;;;;;4994469;28;20022;-85
2021/12/28 01:25:36;;;;;;;7.55;5.65;;;-5.80;89.30;;;;;;4993421;28;20060;-85
2021/12/28 01:28:03;;;;;;;7.50;5.20;;;-5.90;89.60;;;;;;4996065;28;20074;-86
2021/12/28 01:30:29;;;;;;;8.95;5.43;;;-5.80;90.00;;;;;;4996274;28;20091;-86
2021/12/28 01:32:59;;;;;;;10.90;4.53;;;-5.90;89.90;;;;;;4994486;28;20173;-87
2021/12/28 01:35:25;;;;;;;8.35;4.90;;;-5.80;90.00;;;;;;4996807;28;20061;-85
2021/12/28 01:37:51;;;;;;;10.68;5.35;;;-5.90;90.40;;;;;;5010979;28;20093;-84
2021/12/28 01:40:29;;;;;;;10.15;6.18;;;-5.80;90.20;;;;;;5010097;28;20073;-86
2021/12/28 01:43:04;;;;;;;4.53;4.13;;;-5.90;90.00;;;;;;5009448;28;20023;-85
2021/12/28 01:45:32;;;;;;;7.88;4.85;;;-5.90;90.00;;;;;;5017904;28;20079;-82
2021/12/28 01:47:58;;;;;;;14.45;7.38;;;-5.90;89.20;;;;;;5005409;28;20066;-84
2021/12/28 01:50:24;;;;;;;9.23;5.65;;;-5.80;89.70;;;;;;4989093;28;20018;-82
2021/12/28 01:52:50;;;;;;;8.98;6.22;;;-5.80;90.20;;;;;;4997174;28;20041;-86
2021/12/28 01:55:16;;;;;;;10.07;5.20;;;-5.80;90.40;;;;;;5012061;28;20038;-87
2021/12/28 01:57:44;;;;;;;8.25;6.03;;;-5.80;90.40;;;;;;4994197;28;20023;-86
2021/12/28 02:00:11;;;;;;;8.27;4.97;;;-5.90;90.50;;;;;;4992044;28;20023;-85
2021/12/28 02:02:39;;;;;;;8.82;6.30;;;-5.80;90.60;;;;;;4981425;28;20106;-87
2021/12/28 02:05:05;;;;;;;6.88;4.35;;;-5.90;90.40;;;;;;4979519;28;20031;-87
2021/12/28 02:07:31;;;;;;;11.90;6.50;;;-5.90;90.40;;;;;;4980955;28;20479;-88
2021/12/28 02:09:56;;;;;;;6.55;4.47;;;-5.90;90.50;;;;;;4997136;28;20109;-88
2021/12/28 02:12:22;;;;;;;9.70;6.30;;;-5.90;90.60;;;;;;4996463;28;20125;-82
2021/12/28 02:14:49;;;;;;;5.90;4.68;;;-5.90;90.70;;;;;;5005082;28;20027;-83
2021/12/28 02:17:15;;;;;;;7.82;4.93;;;-5.90;90.90;;;;;;5000055;28;20041;-86
2021/12/28 02:19:42;;;;;;;8.02;5.25;;;-5.90;91.00;;;;;;4994704;28;20054;-86
2021/12/28 02:22:08;;;;;;;9.52;5.78;;;-5.90;91.00;;;;;;4995035;28;20369;-85
2021/12/28 02:24:34;;;;;;;7.18;5.45;;;-5.80;91.00;;;;;;4995306;28;20022;-87
2021/12/28 02:27:00;;;;;;;9.80;5.32;;;-5.80;91.00;;;;;;4998254;28;20483;-85
2021/12/28 02:29:26;;;;;;;6.85;4.82;;;-5.80;90.90;;;;;;4998930;28;20396;-84
2021/12/28 02:31:55;;;;;;;8.98;5.80;;;-5.90;90.80;;;;;;4998063;28;20149;-85
2021/12/28 02:34:24;;;;;;;10.80;5.45;;;-5.90;90.90;;;;;;4997317;28;20034;-85
2021/12/28 02:36:50;;;;;;;6.63;4.65;;;-6.00;91.00;;;;;;4996992;28;20128;-85
2021/12/28 02:39:16;;;;;;;10.10;5.07;;;-5.90;91.00;;;;;;4998192;28;20026;-88
2021/12/28 02:41:42;;;;;;;7.95;4.93;;;-5.90;90.90;;;;;;5008232;28;20014;-88
2021/12/28 02:44:08;;;;;;;7.47;4.60;;;-5.90;91.00;;;;;;5020065;28;20128;-88
2021/12/28 02:46:35;;;;;;;8.75;4.65;;;-5.90;90.90;;;;;;5010296;28;20026;-83
2021/12/28 02:49:01;;;;;;;9.63;4.65;;;-6.00;91.00;;;;;;4999784;28;20018;-85
2021/12/28 02:51:27;;;;;;;8.95;5.00;;;-6.00;91.20;;;;;;4999658;28;20034;-84
2021/12/28 02:53:53;;;;;;;8.60;4.40;;;-6.00;91.20;;;;;;4999610;28;20029;-86
2021/12/28 02:56:20;;;;;;;7.57;4.70;;;-6.20;90.90;;;;;;4998326;28;20034;-85
2021/12/28 02:58:53;;;;;;;10.07;4.80;;;-6.20;90.80;;;;;;4997009;28;20026;-85
2021/12/28 03:01:21;;;;;;;8.93;5.03;;;-6.30;90.80;;;;;;4997320;28;20364;-86
2021/12/28 03:03:52;;;;;;;4.30;2.95;;;-6.40;90.90;;;;;;4998237;28;20090;-84
2021/12/28 03:06:21;;;;;;;7.68;5.38;;;-6.40;91.10;;;;;;5010464;28;20030;-83
2021/12/28 03:08:53;;;;;;;6.80;4.72;;;-6.50;91.30;;;;;;4999303;28;20033;-85
2021/12/28 03:11:19;;;;;;;11.55;6.30;;;-6.60;91.20;;;;;;4996780;28;20022;-85
2021/12/28 03:13:51;;;;;;;10.23;4.80;;;-6.60;91.30;;;;;;4996652;28;20575;-84
2021/12/28 03:16:19;;;;;;;6.65;4.38;;;-6.70;91.30;;;;;;4996704;28;20034;-87
2021/12/28 03:18:46;;;;;;;11.38;5.38;;;-6.70;91.40;;;;;;4997958;28;20046;-84
2021/12/28 03:21:16;;;;;;;9.18;5.53;;;-6.80;91.50;;;;;;5001140;28;20030;-84
2021/12/28 03:23:43;;;;;;;8.27;5.18;;;-6.80;91.60;;;;;;5006095;28;20062;-86
2021/12/28 03:26:10;;;;;;;8.50;5.15;;;-6.80;91.70;;;;;;4999277;28;20041;-86
2021/12/28 03:28:40;;;;;;;7.60;5.28;;;-6.80;91.70;;;;;;5001911;28;20091;-85
2021/12/28 03:31:11;;;;;;;6.03;4.45;;;-6.90;91.70;;;;;;5003645;28;20122;-85
2021/12/28 03:33:40;;;;;;;7.35;5.18;;;-6.90;91.80;;;;;;4999491;28;20026;-87
2021/12/28 03:36:08;;;;;;;8.52;4.75;;;-6.90;91.80;;;;;;4999449;28;20094;-85
2021/12/28 03:38:36;;;;;;;8.82;5.57;;;-6.90;91.80;;;;;;4996294;28;20054;-85
2021/12/28 03:41:07;;;;;;;10.63;5.07;;;-6.90;91.90;;;;;;4999434;28;20019;-85
2021/12/28 03:43:34;;;;;;;8.38;5.05;;;-7.00;92.20;;;;;;5001677;28;20460;-85
2021/12/28 03:46:00;;;;;;;9.25;4.72;;;-7.00;91.80;;;;;;4996073;28;20022;-86
2021/12/28 03:48:26;;;;;;;8.45;4.43;;;-7.00;91.70;;;;;;4996286;28;20377;-85
2021/12/28 03:50:51;;;;;;;9.15;5.43;;;-7.00;91.70;;;;;;4997641;28;20023;-86
2021/12/28 03:53:18;;;;;;;5.28;4.10;;;-7.00;91.80;;;;;;4996599;28;20027;-86
2021/12/28 03:55:43;;;;;;;7.93;4.80;;;-7.00;91.80;;;;;;4996679;28;20043;-85
2021/12/28 03:58:09;;;;;;;4.68;2.85;;;-7.00;91.80;;;;;;5013084;28;20030;-84
2021/12/28 04:00:40;;;;;;;7.90;5.13;;;-7.00;91.90;;;;;;5005475;28;20167;-86
2021/12/28 04:03:06;;;;;;;7.93;4.68;;;-7.00;92.00;;;;;;5003347;28;20076;-85
2021/12/28 04:05:32;;;;;;;10.48;5.30;;;-7.00;91.90;;;;;;4995945;28;20019;-84
2021/12/28 04:07:58;;;;;;;5.10;3.28;;;-7.00;91.90;;;;;;4995210;28;20391;-86
2021/12/28 04:10:31;;;;;;;8.68;4.85;;;-7.00;91.90;;;;;;4996098;28;20423;-85
2021/12/28 04:12:57;;;;;;;7.90;4.68;;;-7.00;91.90;;;;;;4997397;28;20093;-86
2021/12/28 04:15:23;;;;;;;8.02;5.57;;;-7.00;91.80;;;;;;5004488;28;20045;-86
2021/12/28 04:17:49;;;;;;;8.10;5.32;;;-7.00;91.80;;;;;;5008965;28;20022;-85
2021/12/28 04:20:18;;;;;;;8.73;4.97;;;-7.00;91.80;;;;;;4999239;28;20061;-84
2021/12/28 04:22:45;;;;;;;7.03;3.97;;;-7.00;91.80;;;;;;4996296;28;20015;-87
2021/12/28 04:25:12;;;;;;;8.77;4.35;;;-7.00;91.90;;;;;;4996434;28;20026;-86
2021/12/28 04:27:39;;;;;;;11.60;5.90;;;-7.00;92.00;;;;;;4998890;28;20030;-86
2021/12/28 04:30:08;;;;;;;8.93;4.88;;;-6.90;92.00;;;;;;5012183;28;20050;-86
2021/12/28 04:32:34;;;;;;;8.88;5.63;;;-6.90;92.00;;;;;;4996013;28;20101;-87
2021/12/28 04:34:59;;;;;;;7.78;5.55;;;-6.80;92.00;;;;;;4998011;28;20435;-87
2021/12/28 04:37:25;;;;;;;8.70;5.30;;;-6.70;92.00;;;;;;4998260;28;20109;-83
2021/12/28 04:39:51;;;;;;;8.95;7.03;;;-6.60;92.10;;;;;;5011067;28;20018;-85
2021/12/28 04:42:17;;;;;;;7.70;5.35;;;-6.60;92.10;;;;;;5005925;28;20097;-84
2021/12/28 04:44:43;;;;;;;7.30;4.85;;;-6.50;92.10;;;;;;4998181;28;20109;-87
2021/12/28 04:47:09;;;;;;;9.73;5.43;;;-6.40;91.70;;;;;;4996358;28;20026;-86
2021/12/28 04:49:35;;;;;;;9.25;5.70;;;-6.40;91.60;;;;;;4995296;28;20019;-85
2021/12/28 04:52:01;;;;;;;8.35;6.20;;;-6.30;91.70;;;;;;4999488;28;20088;-83
2021/12/28 04:54:28;;;;;;;8.63;5.75;;;-6.30;91.80;;;;;;5011776;28;20022;-84
2021/12/28 04:56:54;;;;;;;16.90;8.57;;;-6.20;91.90;;;;;;5004965;28;20046;-85
2021/12/28 04:59:20;;;;;;;11.45;5.78;;;-6.20;91.90;;;;;;4995826;28;20392;-86
2021/12/28 05:01:46;;;;;;;12.73;6.18;;;-6.10;92.00;;;;;;4982472;28;20039;-83
2021/12/28 05:04:12;;;;;;;11.27;5.75;;;-6.10;92.00;;;;;;4976858;28;20047;-85
2021/12/28 05:06:38;;;;;;;7.25;4.50;;;-6.00;92.00;;;;;;4991637;28;20452;-85
2021/12/28 05:09:07;;;;;;;7.72;4.60;;;-6.00;91.90;;;;;;4997802;28;20033;-84
2021/12/28 05:11:34;;;;;;;8.18;5.00;;;-6.00;91.90;;;;;;4997697;28;20030;-82
2021/12/28 05:14:01;;;;;;;11.32;6.50;;;-5.90;91.90;;;;;;5002083;28;20018;-82
2021/12/28 05:16:33;;;;;;;8.45;5.35;;;-5.90;91.80;;;;;;4999282;28;20462;-84
2021/12/28 05:18:59;;;;;;;9.50;5.22;;;-5.90;91.70;;;;;;5003160;28;20026;-85
2021/12/28 05:21:25;;;;;;;10.60;6.63;;;-5.90;91.70;;;;;;5015712;28;20023;-85
2021/12/28 05:23:51;;;;;;;8.43;5.63;;;-5.90;91.70;;;;;;5012721;28;20260;-83
2021/12/28 05:26:17;;;;;;;8.20;4.70;;;-5.90;91.80;;;;;;4996768;28;20022;-85
2021/12/28 05:28:43;;;;;;;7.97;5.68;;;-5.90;92.00;;;;;;4998679;28;20034;-85
2021/12/28 05:31:09;;;;;;;11.60;6.22;;;-5.90;92.10;;;;;;4989567;28;20423;-86
2021/12/28 05:33:34;;;;;;;11.75;5.70;;;-5.80;92.00;;;;;;4984332;28;20023;-84
2021/12/28 05:36:00;;;;;;;9.65;5.65;;;-5.80;92.00;;;;;;4977485;28;20054;-86
2021/12/28 05:38:26;;;;;;;15.65;7.03;;;-5.80;91.50;;;;;;4977375;28;20046;-86
2021/12/28 05:40:52;;;;;;;10.90;5.82;;;-5.80;91.30;;;;;;4984136;28;20098;-88
2021/12/28 05:43:18;;;;;;;9.02;6.05;;;-5.80;91.40;;;;;;4996900;28;20042;-87
2021/12/28 05:45:44;;;;;;;12.85;6.38;;;-5.80;91.40;;;;;;4996467;28;20030;-86
2021/12/28 05:48:10;;;;;;;8.25;5.50;;;-5.80;91.40;;;;;;4992543;28;20366;-86
2021/12/28 05:50:37;;;;;;;9.07;5.35;;;-5.80;91.50;;;;;;4977666;28;20030;-85
2021/12/28 05:53:04;;;;;;;11.60;6.23;;;-5.70;91.60;;;;;;4987464;28;20488;-85
2021/12/28 05:55:31;;;;;;;10.85;5.78;;;-5.70;91.50;;;;;;4980178;28;20297;-85
2021/12/28 05:57:56;;;;;;;9.40;5.83;;;-5.70;91.50;;;;;;4975751;28;20031;-85
2021/12/28 06:00:23;;;;;;;9.70;5.25;;;-5.70;91.30;;;;;;4975562;28;20343;-84
2021/12/28 06:02:49;;;;;;;9.07;5.37;;;-5.60;91.20;;;;;;4997708;28;20026;-85
2021/12/28 06:05:15;;;;;;;9.00;5.13;;;-5.60;91.10;;;;;;4997697;28;20144;-85
2021/12/28 06:07:41;;;;;;;7.10;4.47;;;-5.60;91.00;;;;;;4999277;28;20022;-83
2021/12/28 06:10:08;;;;;;;9.07;5.20;;;-5.70;91.00;;;;;;4997966;28;20022;-84
2021/12/28 06:12:34;;;;;;;9.57;5.75;;;-5.60;91.00;;;;;;4998045;28;20033;-85
2021/12/28 06:15:00;;;;;;;9.25;5.93;;;-5.60;90.90;;;;;;5001583;28;20058;-86
2021/12/28 06:17:26;;;;;;;7.35;6.13;;;-5.70;91.00;;;;;;4998932;28;20503;-85
2021/12/28 06:19:51;;;;;;;8.60;5.15;;;-5.70;90.90;;;;;;5001320;28;20033;-85
2021/12/28 06:22:18;;;;;;;10.15;4.95;;;-5.60;91.00;;;;;;5002202;28;20045;-85
2021/12/28 06:24:43;;;;;;;8.93;4.90;;;-5.60;91.00;;;;;;5001339;28;20027;-87
2021/12/28 06:27:09;;;;;;;9.13;6.00;;;-5.60;91.10;;;;;;5001413;28;20045;-86
2021/12/28 06:29:37;;;;;;;11.82;5.60;;;-5.60;91.10;;;;;;5000972;28;20041;-86
2021/12/28 06:32:02;;;;;;;;;;;-5.60;90.90;;;;;;5000230;28;20030;-87
2021/12/28 06:34:28;;;;;;;9.65;5.30;;;-5.50;91.00;;;;;;4999261;28;20388;-84
2021/12/28 06:36:54;;;;;;;12.35;6.90;;;-5.50;91.20;;;;;;4982237;28;20031;-86
2021/12/28 06:39:20;;;;;;;13.30;6.75;;;-5.50;90.90;;;;;;4986877;28;20383;-85
2021/12/28 06:41:46;;;;;;;10.10;5.13;;;-5.40;91.00;;;;;;4998548;28;20432;-84
2021/12/28 06:44:11;;;;;;;8.25;5.97;;;-5.40;91.10;;;;;;4998229;28;20324;-84
2021/12/28 06:46:38;;;;;;;7.43;5.35;;;-5.40;90.90;;;;;;4998927;28;20037;-85
2021/12/28 06:49:05;;;;;;;21.00;5.55;;;-5.40;90.90;;;;;;4998982;28;20096;-83
2021/12/28 06:51:31;;;;;;;10.25;5.63;;;-5.40;90.90;;;;;;4989169;28;20172;-86
2021/12/28 06:53:57;;;;;;;12.32;5.75;;;-5.40;90.80;;;;;;5004146;28;20106;-86
2021/12/28 06:56:23;;;;;;;12.82;6.80;;;-5.30;90.80;;;;;;4983950;28;20058;-89
2021/12/28 06:58:49;;;;;;;7.70;4.78;;;-5.30;90.80;;;;;;4989261;28;20121;-86
2021/12/28 07:01:15;;;;;;;8.23;5.00;;;-5.30;90.60;;;;;;5000483;28;20110;-87
2021/12/28 07:03:40;;;;;;;8.25;5.63;;;-5.30;90.80;;;;;;4985380;28;20520;-83
2021/12/28 07:06:07;;;;;;;11.02;6.57;;;-5.30;90.70;;;;;;4986075;28;20027;-84
2021/12/28 07:08:34;;;;;;;11.25;7.50;;;-5.20;90.70;;;;;;5002946;28;20021;-86
2021/12/28 07:11:00;;;;;;;8.93;6.40;;;-5.20;90.40;;;;;;5000459;28;20030;-88
2021/12/28 07:13:26;;;;;;;8.57;5.63;;;-5.20;90.40;;;;;;4998613;28;20129;-87
2021/12/28 07:15:52;;;;;;;8.77;5.28;;;-5.10;90.40;;;;;;5001135;28;20034;-86
2021/12/28 07:18:18;;;;;;;9.25;5.43;;;-5.10;90.40;;;;;;5002208;28;20029;-88
2021/12/28 07:20:44;;;;;;;10.40;6.05;;;-5.10;90.40;;;;;;4998911;28;20060;-86
2021/12/28 07:23:10;;;;;;;10.77;7.03;;;-5.10;90.40;;;;;;4998433;28;20070;-87
2021/12/28 07:25:36;;;;;;;8.90;6.25;;;-5.00;90.40;;;;;;5000750;28;20045;-87
2021/12/28 07:28:04;;;;;;;13.38;5.90;;;-5.00;90.40;;;;;;5004065;28;20030;-86
2021/12/28 07:30:30;;;;;;;9.00;5.88;;;-5.00;90.50;;;;;;5017163;28;20081;-88
2021/12/28 07:32:56;;;;;;;10.50;6.97;;;-4.90;90.70;;;;;;5014312;28;20506;-85
2021/12/28 07:35:22;;;;;;;12.60;7.20;;;-4.90;90.70;;;;;;5008501;28;20105;-88
2021/12/28 07:37:48;;;;;;;7.53;6.18;;;-4.90;90.40;;;;;;5012439;28;20515;-87
2021/12/28 07:40:14;;;;;;;12.38;7.50;;;-4.80;90.40;;;;;;5015832;28;20022;-86
2021/12/28 07:42:41;;;;;;;11.67;6.33;;;-4.70;90.30;;;;;;5008271;28;20121;-85
2021/12/28 07:45:10;;;;;;;13.15;6.60;;;-4.70;90.30;;;;;;5003996;28;20265;-86
2021/12/28 07:47:37;;;;;;;10.00;7.13;;;-4.70;90.10;;;;;;4999625;28;20034;-85
2021/12/28 07:50:06;;;;;;;10.55;5.53;;;-4.60;90.00;;;;;;5000087;28;20448;-86
2021/12/28 07:52:31;;;;;;;10.77;5.78;;;-4.60;90.10;;;;;;4999427;28;20083;-86
2021/12/28 07:54:57;;;;;;;13.80;8.88;;;-4.60;90.00;;;;;;4998589;28;20057;-86
2021/12/28 07:57:23;;;;;;;12.18;7.00;;;-4.60;90.30;;;;;;4998478;28;20479;-87
2021/12/28 07:59:49;;;;;;;9.02;6.85;;;-4.50;90.40;;;;;;5005298;28;20030;-86
2021/12/28 08:02:15;;;;;;;12.48;6.38;;;-4.50;90.30;;;;;;5003137;28;20026;-87
2021/12/28 08:04:41;;;;;;;10.30;6.28;;;-4.50;90.20;;;;;;5014106;28;20152;-89
2021/12/28 08:07:06;;;;;;;12.93;6.30;;;-4.50;90.20;;;;;;4998782;28;20023;-87
2021/12/28 08:09:32;;;;;;;12.95;6.03;;;-4.40;90.20;;;;;;4999896;28;20046;-87
2021/12/28 08:12:00;;;;;;;12.13;7.07;;;-4.30;90.20;;;;;;5008846;28;20022;-86
2021/12/28 08:14:25;;;;;;;12.35;6.65;;;-4.30;90.10;;;;;;5012223;28;20021;-86
2021/12/28 08:16:51;;;;;;;12.20;6.50;;;-4.20;90.20;;;;;;5011901;28;20042;-85
2021/12/28 08:19:18;;;;;;;10.82;6.40;;;-4.20;90.50;;;;;;5000902;28;20045;-88
2021/12/28 08:21:45;;;;;;;13.75;7.32;;;-4.10;90.40;;;;;;5007975;28;20026;-87
2021/12/28 08:24:13;;;;;;;8.70;5.50;;;-4.10;90.00;;;;;;5005598;28;20039;-86
2021/12/28 08:26:39;;;;;;;9.75;6.22;;;-4.10;89.50;;;;;;4996957;28;20084;-88
2021/12/28 08:29:05;;;;;;;9.95;6.13;;;-4.10;89.50;;;;;;4998035;28;20431;-86
2021/12/28 08:31:30;;;;;;;15.18;8.55;;;-4.00;89.20;;;;;;4997436;28;20030;-86
2021/12/28 08:33:56;;;;;;;11.35;8.15;;;-3.90;89.00;;;;;;4996940;28;20471;-86
2021/12/28 08:36:22;;;;;;;9.57;6.35;;;-3.80;88.90;;;;;;4996364;28;20030;-86
2021/12/28 08:38:48;;;;;;;9.43;5.90;;;-3.90;90.00;;;;;;4995894;28;20573;-88
2021/12/28 08:41:16;;;;;;;9.43;5.90;;;-3.90;90.20;;;;;;4995628;28;20112;-86
2021/12/28 08:43:42;;;;;;;8.68;6.32;;;-3.90;89.90;;;;;;4998406;28;20169;-86
2021/12/28 08:46:07;;;;;;;12.90;7.05;;;-3.90;89.50;;;;;;4997280;28;20057;-85
2021/12/28 08:48:33;;;;;;;13.07;7.70;;;-3.90;89.90;;;;;;4997318;28;20018;-87
2021/12/28 08:50:59;;;;;;;8.07;5.45;;;-3.90;89.40;;;;;;5000580;28;20064;-86
2021/12/28 08:53:26;;;;;;;11.48;7.43;;;-3.90;88.70;;;;;;5002910;28;20034;-86
2021/12/28 08:55:52;;;;;;;10.73;6.93;;;-3.90;88.70;;;;;;5015377;28;20014;-86
2021/12/28 08:58:18;;;;;;;8.43;5.95;;;-3.90;88.60;;;;;;5016351;28;20014;-84
2021/12/28 09:00:44;;;;;;;9.70;6.88;;;-4.00;88.60;;;;;;5001210;28;20036;-86
2021/12/28 09:03:11;;;;;;;10.70;6.15;;;-4.00;88.70;;;;;;4997661;28;20018;-87
2021/12/28 09:05:37;;;;;;;12.27;7.60;;;-4.00;89.30;;;;;;4996304;28;20388;-86
2021/12/28 09:08:06;;;;;;;12.23;7.90;;;-3.80;89.10;;;;;;4996509;28;20034;-86
2021/12/28 09:10:32;;;;;;;10.00;6.65;;;-3.60;88.40;;;;;;4997069;28;20027;-86
2021/12/28 09:12:58;;;;;;;10.32;7.28;;;-3.40;88.40;;;;;;5000907;28;20018;-84
2021/12/28 09:15:24;;;;;;;14.90;7.43;;;-3.20;88.10;;;;;;4982660;28;20042;-87
2021/12/28 09:17:50;;;;;;;12.55;7.50;;;-2.90;88.00;;;;;;4996588;28;20346;-84
2021/12/28 09:20:21;;;;;;;15.38;8.50;;;-2.80;86.30;;;;;;4996983;28;20030;-84
2021/12/28 09:22:47;;;;;;;8.52;7.40;;;-2.80;85.00;;;;;;4994752;28;20022;-86
2021/12/28 09:25:16;;;;;;;12.65;7.45;;;-2.80;84.70;;;;;;4995576;28;20032;-85
2021/12/28 09:27:43;;;;;;;9.15;6.05;;;-2.80;85.40;;;;;;4994872;28;20037;-87
2021/12/28 09:30:09;;;;;;;9.93;5.07;;;-2.60;85.40;;;;;;4994392;28;20015;-87
2021/12/28 09:32:35;;;;;;;11.20;6.57;;;-2.60;84.90;;;;;;4995679;28;20499;-86
2021/12/28 09:35:02;;;;;;;8.90;5.93;;;-2.70;82.60;;;;;;4994501;28;20026;-87
2021/12/28 09:37:28;;;;;;;13.73;6.80;;;-3.00;81.40;;;;;;4995722;28;20054;-89
2021/12/28 09:39:54;;;;;;;11.55;7.65;;;-3.20;81.10;;;;;;4996701;28;20026;-85
2021/12/28 09:42:21;;;;;;;13.15;6.60;;;-3.50;82.10;;;;;;4998875;28;20022;-84
2021/12/28 09:44:49;;;;;;;6.75;5.03;;;-3.70;82.60;;;;;;4996033;28;20026;-85
2021/12/28 09:47:16;;;;;;;8.68;5.28;;;-3.80;83.10;;;;;;4995464;28;20041;-87
2021/12/28 09:49:43;;;;;;;10.85;6.07;;;-4.00;84.40;;;;;;4995788;28;20069;-87
2021/12/28 09:52:12;;;;;;;8.35;6.18;;;-4.10;84.70;;;;;;4995997;28;20028;-85
2021/12/28 09:54:39;;;;;;;13.20;6.60;;;-4.30;84.80;;;;;;5004618;28;20862;-86
2021/12/28 09:57:05;;;;;;;12.00;8.38;;;-4.30;84.80;;;;;;4998256;28;20038;-88
2021/12/28 09:59:32;;;;;;;10.25;7.43;;;-4.40;84.90;;;;;;4995807;28;20026;-87
2021/12/28 10:01:59;;;;;;;8.38;5.32;;;-4.40;85.20;;;;;;5011156;28;20031;-86
2021/12/28 10:04:25;;;;;;;;;;;-4.50;85.70;;;;;;4996254;28;20488;-87
2021/12/28 10:06:51;;;;;;;10.15;7.13;;;-4.50;86.00;;;;;;4996060;28;19913;-85
2021/12/28 10:09:21;;;;;;;9.20;5.57;;;-4.40;87.50;;;;;;4995566;28;20336;-88
2021/12/28 10:11:53;;;;;;;9.43;5.60;;;-4.20;87.90;;;;;;4993790;28;20030;-85
2021/12/28 10:14:20;;;;;;;7.55;4.95;;;-4.10;87.10;;;;;;4996035;28;20058;-87
2021/12/28 10:16:58;;;;;;;8.52;4.80;;;-3.80;87.40;;;;;;4994290;28;20061;-88
2021/12/28 10:19:42;;;;;;;8.57;6.05;;;-3.40;88.20;;;;;;4995070;28;20030;-86
2021/12/28 10:22:20;;;;;;;7.85;5.47;;;-3.30;88.90;;;;;;4993694;28;20050;-86
2021/12/28 10:24:47;;;;;;;10.25;6.80;;;-3.10;87.60;;;;;;4994654;28;20033;-86
2021/12/28 10:27:17;;;;;;;10.13;7.57;;;-2.80;86.70;;;;;;4994704;28;20117;-86
2021/12/28 10:29:43;;;;;;;8.00;5.75;;;-2.70;84.90;;;;;;4996140;28;20030;-85
2021/12/28 10:32:19;;;;;;;7.03;5.18;;;-2.70;83.70;;;;;;4994266;28;20050;-85
2021/12/28 10:34:52;;;;;;;8.90;5.65;;;-3.00;83.40;;;;;;4994619;28;20100;-87
2021/12/28 10:37:22;;;;;;;12.15;6.75;;;-3.20;83.10;;;;;;4993813;28;20046;-88
2021/12/28 10:39:51;;;;;;;9.65;7.05;;;-3.40;83.00;;;;;;4996648;28;20094;-89
2021/12/28 10:42:53;;;;;;;12.68;7.30;;;-3.60;82.60;;;;;;5004884;28;20022;-85
2021/12/28 10:45:59;;;;;;;11.93;7.05;;;-3.80;83.00;;;;;;5008168;28;20545;-87
2021/12/28 10:48:27;;;;;;;;;;;-3.90;83.10;;;;;;5012035;28;20381;-87
2021/12/28 10:51:00;;;;;;;10.32;6.95;;;-4.00;83.80;;;;;;5012051;28;19906;-85
2021/12/28 10:53:36;;;;;;;13.43;6.85;;;-4.20;85.50;;;;;;5003832;28;20078;-88
2021/12/28 10:56:04;;;;;;;8.93;5.57;;;-4.30;85.50;;;;;;5002057;28;20133;-88
2021/12/28 10:58:42;;;;;;;14.00;6.88;;;-4.40;85.80;;;;;;5000654;28;20037;-88
2021/12/28 11:01:12;;;;;;;10.07;6.03;;;-4.50;85.90;;;;;;5000927;28;20061;-88
2021/12/28 11:03:43;;;;;;;12.20;6.95;;;-4.50;86.40;;;;;;4998556;28;20022;-87
2021/12/28 11:06:20;;;;;;;12.15;8.20;;;-4.50;86.50;;;;;;5018789;28;20027;-85
2021/12/28 11:08:49;;;;;;;10.23;5.90;;;-4.60;86.50;;;;;;4998267;28;20030;-86
2021/12/28 11:11:19;;;;;;;9.35;5.63;;;-4.60;85.80;;;;;;5001883;28;20073;-86
2021/12/28 11:13:45;;;;;;;11.00;5.53;;;-4.60;85.60;;;;;;4997756;28;20058;-86
2021/12/28 11:16:12;;;;;;;7.47;5.50;;;-4.60;85.70;;;;;;5004606;28;20391;-86
2021/12/28 11:18:40;;;;;;;;;;;-4.60;85.90;;;;;;5011851;28;20038;-85
2021/12/28 11:21:31;;;;;;;6.80;5.30;;;-4.70;86.10;;;;;;5001890;28;20363;-87
2021/12/28 11:24:17;;;;;;;7.00;4.40;;;-4.70;85.20;;;;;;4998330;28;20046;-85
2021/12/28 11:26:50;;;;;;;9.33;6.07;;;-4.70;85.50;;;;;;4998348;28;20026;-87
2021/12/28 11:29:28;;;;;;;7.63;4.70;;;-4.70;84.90;;;;;;5018241;28;20026;-87
2021/12/28 11:32:01;;;;;;;8.20;5.25;;;-4.80;85.40;;;;;;5004595;28;20019;-85
2021/12/28 11:34:35;;;;;;;9.82;5.03;;;-4.80;85.30;;;;;;5001256;28;20050;-87
2021/12/28 11:37:18;;;;;;;9.00;5.28;;;-4.80;85.00;;;;;;4998395;28;20054;-87
2021/12/28 11:39:50;;;;;;;10.50;6.07;;;-4.80;84.90;;;;;;4998351;28;20483;-86
2021/12/28 11:42:17;;;;;;;9.30;5.53;;;-4.80;85.00;;;;;;4998485;28;20479;-86
2021/12/28 11:44:43;;;;;;;9.95;6.25;;;-4.80;85.50;;;;;;5006027;28;20027;-86
2021/12/28 11:47:13;;;;;;;8.90;5.88;;;-4.80;86.50;;;;;;4995575;28;20027;-85
2021/12/28 11:49:41;;;;;;;8.85;5.53;;;-4.80;85.80;;;;;;4994003;28;20019;-85
2021/12/28 11:52:15;;;;;;;9.30;5.63;;;-4.70;86.10;;;;;;4984534;28;20086;-84
2021/12/28 11:54:47;;;;;;;8.30;5.43;;;-4.80;85.80;;;;;;4983257;28;20102;-86
2021/12/28 11:57:29;;;;;;;10.63;6.80;;;-4.80;85.20;;;;;;4980866;28;20037;-86
2021/12/28 12:00:02;;;;;;;10.98;5.93;;;-4.80;85.80;;;;;;5003889;28;20067;-87
2021/12/28 12:02:59;;;;;;;9.77;6.10;;;-4.80;85.90;;;;;;4989828;28;20091;-88
2021/12/28 12:05:26;;;;;;;8.80;5.88;;;-4.70;86.70;;;;;;4985782;28;20214;-86
2021/12/28 12:08:18;;;;;;;;;;;-4.80;86.10;;;;;;4990409;28;20116;-87
2021/12/28 12:10:46;;;;;;;8.73;5.65;;;-4.80;86.50;;;;;;4999435;28;19914;-89
2021/12/28 12:13:19;;;;;;;10.75;6.57;;;-4.90;87.70;;;;;;5000399;28;20031;-87
2021/12/28 12:15:49;;;;;;;14.13;9.60;;;-4.90;87.90;;;;;;4997849;28;20101;-87
2021/12/28 12:18:18;;;;;;;12.93;7.35;;;-4.90;87.40;;;;;;4998621;28;20022;-86
2021/12/28 12:20:50;;;;;;;13.48;6.78;;;-4.90;87.10;;;;;;4999352;28;20023;-85
2021/12/28 12:23:22;;;;;;;16.02;7.18;;;-4.90;87.20;;;;;;5000258;28;20018;-88
2021/12/28 12:25:51;;;;;;;11.32;7.68;;;-4.90;87.00;;;;;;5000992;28;20062;-86
2021/12/28 12:28:30;;;;;;;10.25;6.78;;;-4.90;86.90;;;;;;5006490;28;20022;-87
2021/12/28 12:30:57;;;;;;;11.77;6.75;;;-4.90;86.90;;;;;;5006701;28;20034;-87
2021/12/28 12:33:32;;;;;;;11.05;7.03;;;-5.00;87.30;;;;;;5025627;28;20025;-86
2021/12/28 12:35:59;;;;;;;13.23;6.32;;;-5.00;87.50;;;;;;5017821;28;20073;-86
2021/12/28 12:38:25;;;;;;;11.75;7.18;;;-5.00;87.80;;;;;;5017160;28;20042;-88
2021/12/28 12:41:15;;;;;;;8.85;7.07;;;-5.00;88.40;;;;;;4998475;28;20164;-87
2021/12/28 12:43:53;;;;;;;10.77;6.93;;;-5.00;88.10;;;;;;5000199;28;20087;-85
2021/12/28 12:46:37;;;;;;;10.25;6.10;;;-5.10;87.90;;;;;;5024119;28;20085;-86
2021/12/28 12:49:30;;;;;;;9.13;5.32;;;-5.10;87.80;;;;;;5003801;28;20593;-84
2021/12/28 12:52:07;;;;;;;14.48;7.72;;;-5.10;88.30;;;;;;5012933;28;20444;-88